Time;durP1;ratioP1;P1;durP2;ratioP2;P2;SDS_P1;SDS_P2;PMS_P1;PMS_P2;Temp;Humidity;BMP_temperature;BMP_pressure;BME280_temperature;BME280_humidity;BME280_pressure;Samples;Min_cycle;Max_cycle;Signal;HPM_P1;HPM_P2
2021/12/21 00:00:43;;;;;;;;;15.25;10.00;;;;;7.31;59.26;101702.22;5115429;27;45743;-78
2021/12/21 00:03:09;;;;;;;;;13.25;11.00;;;;;7.31;59.52;101703.97;5115221;27;45681;-78
2021/12/21 00:05:36;;;;;;;;;10.75;10.00;;;;;7.28;59.22;101709.31;5114876;27;46354;-77
2021/12/21 00:08:04;;;;;;;;;17.25;11.25;;;;;7.31;59.56;101696.16;5115198;27;45851;-78
2021/12/21 00:10:32;;;;;;;;;13.50;9.50;;;;;7.29;59.38;101700.59;5115292;27;45579;-78
2021/12/21 00:15:36;;;;;;;;;12.25;10.00;;;;;7.20;59.15;101670.53;5114710;27;45503;-78
2021/12/21 00:25:53;;;;;;;;;12.75;12.50;;;;;7.18;59.35;101679.34;5114371;27;45431;-78
2021/12/21 00:28:18;;;;;;;;;12.75;10.75;;;;;7.11;58.89;101668.28;5114929;27;45570;-76
2021/12/21 00:30:44;;;;;;;;;13.00;10.00;;;;;7.15;59.33;101682.88;5116082;27;45541;-78
2021/12/21 00:33:09;;;;;;;;;12.25;10.75;;;;;7.13;59.32;101679.47;5117952;27;46509;-78
2021/12/21 00:35:35;;;;;;;;;12.00;10.25;;;;;7.08;59.33;101674.47;5117878;27;45599;-79
2021/12/21 00:38:03;;;;;;;;;11.00;10.00;;;;;7.11;59.15;101671.75;5118272;27;45755;-76
2021/12/21 00:40:29;;;;;;;;;14.25;12.00;;;;;7.07;59.39;101664.94;5118407;27;45752;-79
2021/12/21 00:42:55;;;;;;;;;12.25;9.75;;;;;7.10;59.25;101670.06;5118058;27;46384;-78
2021/12/21 00:45:21;;;;;;;;;12.00;11.50;;;;;7.11;59.22;101683.94;5118521;27;45552;-78
2021/12/21 00:47:49;;;;;;;;;13.25;9.00;;;;;7.09;59.31;101680.53;5118528;27;45470;-77
2021/12/21 00:53:37;;;;;;;;;12.75;10.00;;;;;7.06;59.36;101668.47;5117959;27;46164;-78
2021/12/21 00:56:03;;;;;;;;;9.25;8.00;;;;;7.06;59.23;101667.63;5099984;27;48162;-79
2021/12/21 00:58:30;;;;;;;;;9.00;9.00;;;;;6.97;59.49;101650.59;5118985;27;45563;-78
2021/12/21 01:00:56;;;;;;;;;13.00;12.00;;;;;7.04;59.45;101662.47;5119526;27;45812;-78
2021/12/21 01:06:58;;;;;;;;;14.00;11.50;;;;;7.02;59.19;101669.50;5120963;27;46111;-79
2021/12/21 01:11:53;;;;;;;;;11.25;9.00;;;;;6.94;59.45;101650.72;5124289;27;45221;-77
2021/12/21 01:17:12;;;;;;;;;11.25;10.00;;;;;6.85;59.65;101635.47;5141158;27;44952;-79
2021/12/21 01:31:22;;;;;;;;;9.75;9.50;;;;;6.91;59.77;101647.41;5126742;27;45848;-78
2021/12/21 01:50:23;;;;;;;;;19.25;10.75;;;;;6.81;59.37;101654.69;5138577;27;45705;-77
2021/12/21 01:52:48;;;;;;;;;13.50;12.00;;;;;6.78;59.10;101651.38;5138867;27;45629;-76
2021/12/21 01:55:14;;;;;;;;;9.25;7.50;;;;;6.67;59.18;101633.56;5141436;27;45441;-77
2021/12/21 01:57:40;;;;;;;;;8.00;8.00;;;;;6.79;59.31;101658.28;5121146;27;47673;-78
2021/12/21 02:00:07;;;;;;;;;10.75;8.75;;;;;6.78;59.35;101657.44;5138465;27;45962;-79
2021/12/21 02:02:32;;;;;;;;;10.00;9.25;;;;;6.78;59.41;101656.59;5137764;27;45668;-80
2021/12/21 02:04:58;;;;;;;;;10.00;9.75;;;;;6.77;59.27;101653.13;5138567;27;45904;-78
2021/12/21 02:07:23;;;;;;;;;15.50;11.75;;;;;6.65;59.41;101633.59;5138470;27;46355;-78
2021/12/21 02:09:48;;;;;;;;;10.00;9.75;;;;;6.77;59.48;101641.84;5136212;27;46758;-76
2021/12/21 02:12:18;;;;;;;;;12.00;9.50;;;;;6.77;59.44;101644.47;5119063;27;45549;-78
2021/12/21 02:14:51;;;;;;;;;9.75;9.75;;;;;6.76;59.09;101643.63;5137421;27;45586;-78
2021/12/21 02:22:42;;;;;;;;;18.00;12.50;;;;;6.72;59.28;101637.69;5137032;27;45510;-76
2021/12/21 02:25:34;;;;;;;;;11.50;9.75;;;;;6.67;59.20;101624.00;5138031;27;45563;-78
2021/12/21 02:28:12;;;;;;;;;15.75;11.00;;;;;6.71;59.42;101633.38;5137455;27;46226;-78
2021/12/21 02:30:42;;;;;;;;;11.25;11.00;;;;;6.68;59.07;101628.31;5137243;27;46077;-76
2021/12/21 02:33:08;;;;;;;;;11.00;11.00;;;;;6.69;59.36;101634.38;5137416;27;45986;-79
2021/12/21 02:35:34;;;;;;;;;11.50;11.50;;;;;6.68;59.34;101623.09;5137304;27;45508;-79
2021/12/21 02:37:59;;;;;;;;;10.00;9.00;;;;;6.65;59.28;101617.13;5137207;27;46485;-77
2021/12/21 02:40:24;;;;;;;;;12.00;9.75;;;;;6.69;59.08;101622.16;5137451;27;45568;-77
2021/12/21 02:42:50;;;;;;;;;13.00;12.75;;;;;6.69;59.48;101622.16;5137655;27;45532;-77
2021/12/21 02:45:15;;;;;;;;;17.75;12.50;;;;;6.68;59.24;101617.88;5137898;27;45564;-78
2021/12/21 02:47:40;;;;;;;;;16.00;13.00;;;;;6.64;59.41;101605.88;5119060;27;47554;-77
2021/12/21 02:50:07;;;;;;;;;13.75;12.25;;;;;6.68;59.45;101606.63;5138529;27;46060;-77
2021/12/21 02:52:35;;;;;;;;;15.75;12.00;;;;;6.59;59.38;101591.34;5138393;27;45785;-78
2021/12/21 02:55:06;;;;;;;;;10.00;9.25;;;;;6.55;59.42;101588.00;5138780;27;45589;-78
2021/12/21 02:57:32;;;;;;;;;13.00;12.00;;;;;6.59;59.44;101592.19;5137148;27;45456;-78
2021/12/21 02:59:57;;;;;;;;;14.25;13.25;;;;;6.42;59.30;101565.13;5137016;27;45650;-78
2021/12/21 03:02:25;;;;;;;;;17.00;14.25;;;;;6.63;59.25;101598.16;5137234;27;45625;-78
2021/12/21 03:04:51;;;;;;;;;9.25;9.00;;;;;6.60;59.66;101591.28;5136936;27;45720;-78
2021/12/21 03:07:52;;;;;;;;;12.75;12.25;;;;;6.60;59.54;101593.88;5136515;27;47321;-77
2021/12/21 03:10:14;;;;;;;;;17.50;12.25;;;;;6.56;59.51;101594.94;5136514;27;45707;-77
2021/12/21 03:15:24;;;;;;;;;16.00;13.00;;;;;6.46;59.13;101587.53;5136624;27;45644;-76
2021/12/21 03:17:51;;;;;;;;;16.00;14.00;;;;;6.48;59.20;101599.56;5136163;27;47689;-76
2021/12/21 03:20:17;;;;;;;;;9.50;8.25;;;;;6.44;59.87;101597.13;5136318;27;47986;-78
2021/12/21 03:22:43;;;;;;;;;13.25;12.25;;;;;6.44;59.37;101600.59;5136492;27;45870;-77
2021/12/21 03:25:10;;;;;;;;;13.50;10.75;;;;;6.43;59.56;101592.84;5136337;27;45539;-78
2021/12/21 03:27:35;;;;;;;;;12.50;11.50;;;;;6.24;59.45;101572.72;5136056;27;46298;-77
2021/12/21 03:30:01;;;;;;;;;18.00;12.75;;;;;6.39;59.82;101591.25;5136358;27;46173;-78
2021/12/21 03:32:27;;;;;;;;;14.25;11.00;;;;;6.39;59.78;101599.06;5136201;27;45559;-77
2021/12/21 03:34:52;;;;;;;;;11.00;8.75;;;;;6.38;59.46;101592.16;5136269;27;45491;-78
2021/12/21 03:37:19;;;;;;;;;7.50;7.50;;;;;6.40;59.94;101592.97;5136382;27;46605;-77
2021/12/21 03:39:45;;;;;;;;;13.50;12.00;;;;;6.27;59.48;101571.75;5136008;27;46109;-77
2021/12/21 03:42:13;;;;;;;;;9.50;8.00;;;;;6.38;59.47;101593.00;5136186;27;45787;-77
2021/12/21 03:44:39;;;;;;;;;12.25;9.50;;;;;6.38;59.80;101597.38;5136065;27;45880;-78
2021/12/21 03:47:08;;;;;;;;;13.50;9.50;;;;;6.32;59.89;101586.28;5117050;27;45704;-76
2021/12/21 03:55:33;;;;;;;;;12.75;11.75;;;;;6.35;59.65;101600.94;5136044;27;45606;-77
2021/12/21 03:57:58;;;;;;;;;9.25;8.75;;;;;6.32;59.98;101596.69;5136327;27;45737;-78
2021/12/21 04:00:27;;;;;;;;;8.75;8.50;;;;;6.32;59.75;101601.03;5135913;27;46182;-79
2021/12/21 04:02:55;;;;;;;;;8.00;8.00;;;;;6.30;59.73;101595.91;5135849;27;45657;-77
2021/12/21 04:05:21;;;;;;;;;12.25;9.00;;;;;6.29;60.26;101593.38;5138312;27;45542;-78
2021/12/21 04:07:46;;;;;;;;;10.50;9.25;;;;;6.27;60.05;101597.78;5138988;27;48006;-78
2021/12/21 04:10:11;;;;;;;;;12.75;9.75;;;;;6.25;59.73;101586.59;5141688;27;46092;-77
2021/12/21 04:12:38;;;;;;;;;10.50;9.50;;;;;6.21;60.21;101585.84;5143131;27;45506;-78
2021/12/21 04:15:06;;;;;;;;;11.25;9.25;;;;;6.20;59.92;101578.97;5125456;27;45637;-77
2021/12/21 04:17:32;;;;;;;;;10.00;9.25;;;;;6.15;60.05;101578.28;5142841;27;45614;-77
2021/12/21 04:19:58;;;;;;;;;10.00;8.50;;;;;6.21;59.82;101582.38;5120507;27;46894;-77
2021/12/21 04:25:45;;;;;;;;;16.00;9.50;;;;;6.11;60.11;101568.03;5139100;27;45697;-78
2021/12/21 04:28:11;;;;;;;;;11.00;9.00;;;;;6.16;60.33;101579.97;5138984;27;46802;-78
2021/12/21 04:30:37;;;;;;;;;10.00;8.75;;;;;6.13;60.36;101577.47;5139015;27;46173;-77
2021/12/21 04:33:03;;;;;;;;;16.75;10.25;;;;;6.09;60.22;101575.06;5139052;27;45641;-78
2021/12/21 04:35:28;;;;;;;;;14.25;12.75;;;;;5.90;60.19;101544.50;5139381;27;45516;-77
2021/12/21 04:38:11;;;;;;;;;12.00;11.00;;;;;6.03;60.57;101570.94;5119744;27;46207;-79
2021/12/21 04:40:46;;;;;;;;;15.25;11.75;;;;;6.07;60.57;101582.06;5139023;27;45710;-77
2021/12/21 04:43:12;;;;;;;;;14.00;11.75;;;;;6.05;60.42;101576.06;5139020;27;45804;-78
2021/12/21 04:45:38;;;;;;;;;14.75;12.50;;;;;6.03;60.62;101576.13;5138949;27;45537;-77
2021/12/21 04:48:04;;;;;;;;;13.25;11.00;;;;;6.04;60.52;101574.38;5139142;27;46430;-77
2021/12/21 04:50:29;;;;;;;;;7.75;6.25;;;;;6.03;60.45;101578.72;5138463;27;46996;-78
2021/12/21 04:52:56;;;;;;;;;12.50;11.75;;;;;5.92;60.41;101560.06;5139156;27;45732;-76
2021/12/21 04:55:22;;;;;;;;;12.75;11.00;;;;;6.01;60.13;101571.88;5140063;27;45920;-76
2021/12/21 04:57:47;;;;;;;;;17.25;15.75;;;;;5.99;60.69;101578.91;5139207;27;46508;-77
2021/12/21 05:00:14;;;;;;;;;10.25;9.50;;;;;5.98;60.60;101569.41;5119982;27;47061;-76
2021/12/21 05:02:39;;;;;;;;;11.75;10.25;;;;;5.93;60.39;101566.97;5138415;27;45885;-78
2021/12/21 05:05:06;;;;;;;;;12.00;8.75;;;;;5.80;60.54;101540.53;5138478;27;45945;-75
2021/12/21 05:10:58;;;;;;;;;13.00;11.00;;;;;5.74;60.81;101553.75;5138372;27;45561;-77
2021/12/21 05:13:26;;;;;;;;;10.75;9.00;;;;;5.88;60.46;101574.91;5138580;27;45668;-78
2021/12/21 05:15:52;;;;;;;;;12.00;9.00;;;;;5.85;60.87;101575.00;5138030;27;45539;-78
2021/12/21 05:18:18;;;;;;;;;12.25;11.50;;;;;5.82;60.55;101575.13;5119455;27;45575;-78
2021/12/21 05:20:45;;;;;;;;;13.00;10.25;;;;;5.81;60.91;101573.44;5119162;27;46225;-76
2021/12/21 05:23:11;;;;;;;;;12.75;11.00;;;;;5.87;60.77;101582.78;5119857;27;45571;-78
2021/12/21 05:25:38;;;;;;;;;12.25;9.00;;;;;5.77;60.66;101558.00;5138537;27;45760;-78
2021/12/21 05:28:05;;;;;;;;;15.75;12.00;;;;;5.84;60.75;101569.84;5138429;27;46348;-77
2021/12/21 05:30:32;;;;;;;;;12.00;10.25;;;;;5.82;60.85;101580.34;5138105;27;46175;-78
2021/12/21 05:32:57;;;;;;;;;10.25;9.75;;;;;5.81;60.88;101581.22;5137761;27;45499;-78
2021/12/21 05:35:25;;;;;;;;;12.00;10.25;;;;;5.79;60.88;101583.03;5119601;27;46035;-77
2021/12/21 05:41:51;;;;;;;;;11.75;8.50;;;;;5.70;60.95;101585.97;5139477;27;45634;-78
2021/12/21 05:44:19;;;;;;;;;11.75;9.50;;;;;5.70;60.97;101578.16;5139751;27;45725;-77
2021/12/21 05:46:44;;;;;;;;;11.50;9.50;;;;;5.69;61.40;101575.59;5140077;27;45511;-77
2021/12/21 05:49:10;;;;;;;;;12.75;11.75;;;;;5.44;60.96;101542.69;5138397;27;45895;-76
2021/12/21 05:51:36;;;;;;;;;9.50;9.00;;;;;5.63;61.29;101571.47;5138395;27;46126;-77
2021/12/21 05:54:02;;;;;;;;;12.00;11.50;;;;;5.53;61.18;101558.84;5137948;27;45595;-77
2021/12/21 05:56:27;;;;;;;;;9.25;8.00;;;;;5.57;61.23;101574.28;5137960;27;45688;-77
2021/12/21 05:58:52;;;;;;;;;11.25;8.25;;;;;5.52;61.07;101567.53;5137356;27;46296;-78
2021/12/21 06:01:18;;;;;;;;;11.00;8.00;;;;;5.59;61.24;101584.63;5137262;27;46013;-77
2021/12/21 06:03:44;;;;;;;;;10.50;8.00;;;;;5.30;61.06;101541.44;5137623;27;46030;-78
2021/12/21 06:06:15;;;;;;;;;9.25;8.00;;;;;5.55;61.36;101588.25;5137823;27;45763;-78
2021/12/21 06:08:42;;;;;;;;;8.50;8.50;;;;;5.53;61.31;101595.22;5137530;27;45632;-77
2021/12/21 06:11:08;;;;;;;;;8.00;7.00;;;;;5.51;61.38;101591.84;5137374;27;46014;-78
2021/12/21 06:26:54;;;;;;;;;8.25;6.50;;;;;5.39;61.26;101595.72;5137129;27;45634;-78
2021/12/21 06:29:19;;;;;;;;;9.00;6.25;;;;;5.27;61.40;101568.41;5136172;27;45592;-77
2021/12/21 06:31:45;;;;;;;;;9.00;6.75;;;;;5.30;61.31;101578.66;5136944;27;46123;-78
2021/12/21 06:34:10;;;;;;;;;7.50;7.50;;;;;5.30;61.67;101572.63;5136711;27;45827;-78
2021/12/21 06:36:36;;;;;;;;;9.25;8.25;;;;;5.32;61.34;101587.28;5118351;27;45598;-77
2021/12/21 06:39:05;;;;;;;;;6.25;5.50;;;;;5.20;61.37;101576.44;5136735;27;46437;-77
2021/12/21 06:41:31;;;;;;;;;7.50;7.00;;;;;5.29;61.33;101586.53;5136715;27;46470;-78
2021/12/21 06:43:57;;;;;;;;;8.25;7.00;;;;;4.99;61.24;101536.44;5136644;27;45493;-77
2021/12/21 06:54:08;;;;;;;;;7.75;7.50;;;;;5.21;61.92;101583.34;5136082;27;45507;-77
2021/12/21 06:56:34;;;;;;;;;10.50;8.25;;;;;5.19;61.75;101587.72;5136565;27;45901;-78
2021/12/21 06:58:59;;;;;;;;;7.00;6.00;;;;;5.18;61.95;101579.09;5136578;27;45723;-78
2021/12/21 07:01:28;;;;;;;;;8.50;5.75;;;;;5.15;61.42;101581.78;5136567;27;46303;-78
2021/12/21 07:03:54;;;;;;;;;11.00;8.75;;;;;5.16;61.47;101582.63;5136654;27;45698;-76
2021/12/21 07:06:22;;;;;;;;;11.50;10.00;;;;;5.04;61.78;101566.56;5136988;27;45760;-77
2021/12/21 07:19:59;;;;;;;;;13.75;10.25;;;;;4.92;61.62;101574.75;5137606;27;45602;-77
2021/12/21 07:22:44;;;;;;;;;7.75;7.00;;;;;4.95;61.86;101587.63;5092718;27;45628;-78
2021/12/21 07:25:10;;;;;;;;;31.75;27.25;;;;;4.93;61.43;101592.03;5092746;27;45601;-77
2021/12/21 07:27:36;;;;;;;;;20.25;19.00;;;;;4.93;61.66;101594.63;5093017;27;45639;-78
2021/12/21 07:30:03;;;;;;;;;15.00;10.00;;;;;4.86;61.62;101587.09;5092567;27;47108;-78
2021/12/21 07:32:29;;;;;;;;;11.75;9.00;;;;;4.90;61.62;101591.28;5075155;27;48267;-78
2021/12/21 07:34:54;;;;;;;;;12.00;8.75;;;;;4.87;61.69;101594.81;5092627;27;45727;-77
2021/12/21 07:37:19;;;;;;;;;9.00;8.00;;;;;4.86;61.89;101597.47;5092950;27;45632;-76
2021/12/21 07:39:45;;;;;;;;;10.00;6.00;;;;;4.65;62.11;101563.50;5092199;27;46294;-78
2021/12/21 07:42:10;;;;;;;;;12.00;8.00;;;;;4.81;62.20;101599.34;5091775;27;45555;-78
2021/12/21 07:44:36;;;;;;;;;8.50;7.00;;;;;4.81;62.20;101596.75;5092675;27;45571;-78
2021/12/21 07:47:02;;;;;;;;;8.00;7.50;;;;;4.78;62.15;101597.69;5092767;27;45672;-77
2021/12/21 07:49:27;;;;;;;;;13.75;7.75;;;;;4.78;61.84;101584.72;5092449;27;46237;-79
2021/12/21 07:51:53;;;;;;;;;9.25;8.25;;;;;4.73;62.05;101584.03;5092382;27;46735;-78
2021/12/21 07:57:39;;;;;;;;;12.25;9.25;;;;;4.71;62.07;101593.59;5092312;27;45708;-78
2021/12/21 08:00:08;;;;;;;;;6.50;5.50;;;;;4.74;61.86;101606.50;5112238;27;46244;-77
2021/12/21 08:02:34;;;;;;;;;12.25;9.75;;;;;4.69;62.08;101600.59;5135656;27;47145;-78
2021/12/21 08:05:04;;;;;;;;;12.75;9.75;;;;;4.64;61.80;101592.91;5135775;27;45626;-76
2021/12/21 08:07:34;;;;;;;;;8.75;7.75;;;;;4.70;62.28;101611.81;5135642;27;45830;-79
2021/12/21 08:10:07;;;;;;;;;10.75;7.25;;;;;4.69;62.00;101610.13;5135316;27;46340;-79
2021/12/21 08:12:32;;;;;;;;;7.50;5.50;;;;;4.64;61.96;101597.28;5116712;27;46990;-76
2021/12/21 08:14:58;;;;;;;;;11.25;8.00;;;;;4.67;62.25;101606.72;5135686;27;45642;-77
2021/12/21 08:17:23;;;;;;;;;10.75;8.00;;;;;4.63;62.22;101605.97;5135666;27;45653;-77
2021/12/21 08:19:49;;;;;;;;;11.00;9.25;;;;;4.67;62.10;101604.97;5135224;27;47291;-79
2021/12/21 08:22:15;;;;;;;;;12.00;8.50;;;;;4.57;62.21;101594.03;5134766;27;45599;-77
2021/12/21 08:24:42;;;;;;;;;10.75;7.50;;;;;4.68;61.85;101608.41;5135258;27;45987;-78
2021/12/21 08:27:08;;;;;;;;;11.00;8.00;;;;;4.69;62.00;101607.53;5135339;27;45840;-77
2021/12/21 08:29:33;;;;;;;;;6.25;5.50;;;;;4.67;62.16;101609.31;5134238;27;45728;-77
2021/12/21 08:31:59;;;;;;;;;9.75;8.00;;;;;4.61;62.48;101595.63;5117177;27;46305;-76
2021/12/21 08:34:28;;;;;;;;;9.50;8.25;;;;;4.66;62.40;101600.66;5136621;27;45568;-75
2021/12/21 08:36:54;;;;;;;;;11.00;9.50;;;;;4.68;62.33;101614.47;5137481;27;45849;-79
2021/12/21 08:39:23;;;;;;;;;12.25;9.75;;;;;4.48;62.41;101575.31;5137342;27;45879;-78
2021/12/21 08:41:56;;;;;;;;;9.25;8.00;;;;;4.71;62.54;101613.50;5136977;27;46672;-77
2021/12/21 08:44:24;;;;;;;;;7.50;7.25;;;;;4.63;62.14;101600.78;5116536;27;45812;-77
2021/12/21 08:46:50;;;;;;;;;10.75;8.50;;;;;4.69;62.12;101610.97;5117119;27;45592;-79
2021/12/21 08:49:15;;;;;;;;;9.25;7.50;;;;;4.69;62.26;101608.38;5134860;27;46241;-78
2021/12/21 08:51:41;;;;;;;;;10.75;8.25;;;;;4.70;62.06;101606.63;5136286;27;47022;-78
2021/12/21 08:54:06;;;;;;;;;9.75;8.50;;;;;4.68;62.47;101603.22;5119637;27;45680;-76
2021/12/21 08:56:31;;;;;;;;;8.50;7.25;;;;;4.72;62.40;101603.06;5138830;27;45512;-78
2021/12/21 08:58:57;;;;;;;;;13.00;8.75;;;;;4.74;62.24;101608.22;5138737;27;46332;-79
2021/12/21 09:01:22;;;;;;;;;14.00;11.50;;;;;4.75;62.07;101608.16;5138717;27;46000;-77
2021/12/21 09:03:49;;;;;;;;;11.00;11.00;;;;;4.78;62.24;101610.69;5138441;27;45488;-79
2021/12/21 09:06:16;;;;;;;;;11.50;9.00;;;;;4.80;62.06;101614.09;5138700;27;45728;-78
2021/12/21 09:08:41;;;;;;;;;14.75;12.50;;;;;4.81;62.18;101623.56;5132558;27;47246;-77
2021/12/21 09:11:07;;;;;;;;;12.75;10.75;;;;;4.73;62.25;101602.19;5138859;27;45679;-78
2021/12/21 09:13:32;;;;;;;;;12.00;11.50;;;;;4.70;62.34;101597.06;5120164;27;45674;-77
2021/12/21 09:15:58;;;;;;;;;9.25;9.25;;;;;4.84;62.06;101622.63;5137408;27;45589;-77
2021/12/21 09:18:24;;;;;;;;;12.50;9.50;;;;;4.84;62.26;101623.47;5138177;27;47196;-76
2021/12/21 09:20:50;;;;;;;;;14.50;10.75;;;;;4.86;62.26;101624.25;5136839;27;46834;-77
2021/12/21 09:23:17;;;;;;;;;8.50;8.50;;;;;4.83;62.26;101613.13;5137391;27;45884;-78
2021/12/21 09:25:43;;;;;;;;;13.25;11.50;;;;;4.84;62.44;101626.06;5138366;27;45531;-78
2021/12/21 09:28:08;;;;;;;;;18.00;10.00;;;;;4.85;62.15;101627.78;5137884;27;47650;-78
2021/12/21 09:30:34;;;;;;;;;8.50;7.75;;;;;4.88;62.01;101632.00;5138133;27;45581;-78
2021/12/21 09:32:59;;;;;;;;;8.25;8.25;;;;;4.89;62.33;101624.19;5119172;27;45670;-78
2021/12/21 09:35:26;;;;;;;;;8.25;7.75;;;;;4.88;62.30;101626.81;5138293;27;45458;-78
2021/12/21 09:37:53;;;;;;;;;8.75;8.75;;;;;4.91;62.57;101631.94;5137633;27;45734;-78
2021/12/21 09:40:22;;;;;;;;;15.00;13.00;;;;;4.92;62.38;101626.66;5137622;27;47265;-79
2021/12/21 09:42:49;;;;;;;;;12.00;8.75;;;;;4.91;62.48;101627.56;5138069;27;45635;-76
2021/12/21 09:45:15;;;;;;;;;13.25;10.00;;;;;4.95;62.33;101633.53;5138322;27;45494;-78
2021/12/21 09:47:42;;;;;;;;;14.75;11.50;;;;;4.94;62.53;101629.22;5137794;27;47615;-77
2021/12/21 09:50:13;;;;;;;;;14.50;14.00;;;;;4.96;62.43;101624.84;5118840;27;46293;-75
2021/12/21 09:52:41;;;;;;;;;15.00;11.00;;;;;4.99;62.02;101629.94;5118952;27;45938;-79
2021/12/21 09:58:28;;;;;;;;;16.25;12.00;;;;;5.06;62.17;101636.63;5137458;27;46170;-76
2021/12/21 10:00:53;;;;;;;;;15.00;12.00;;;;;5.07;61.93;101639.16;5138574;27;46214;-75
2021/12/21 10:03:18;;;;;;;;;16.25;13.00;;;;;5.11;62.35;101645.13;5121166;27;45807;-77
2021/12/21 10:05:47;;;;;;;;;15.75;14.00;;;;;5.14;62.07;101641.56;5140920;27;45788;-78
2021/12/21 10:08:16;;;;;;;;;19.75;15.50;;;;;5.15;62.04;101636.31;5120995;27;46385;-77
2021/12/21 10:10:53;;;;;;;;;12.00;11.75;;;;;5.09;61.96;101623.53;5118527;27;48148;-78
2021/12/21 10:13:20;;;;;;;;;18.50;15.00;;;;;5.19;62.28;101637.06;5137234;27;45490;-78
2021/12/21 10:15:49;;;;;;;;;15.75;13.25;;;;;5.19;62.40;101632.72;5137668;27;45765;-78
2021/12/21 10:18:22;;;;;;;;;16.00;14.00;;;;;5.16;62.56;101637.19;5137300;27;45642;-76
2021/12/21 10:20:48;;;;;;;;;18.00;15.25;;;;;5.19;62.03;101643.13;5137346;27;46278;-78
2021/12/21 10:23:21;;;;;;;;;16.50;11.50;;;;;5.16;62.30;101640.63;5136831;27;45603;-77
2021/12/21 10:26:02;;;;;;;;;11.00;11.00;;;;;5.22;61.91;101640.44;5137195;27;45985;-77
2021/12/21 10:28:37;;;;;;;;;13.25;12.00;;;;;5.24;62.35;101635.16;5137171;27;46773;-77
2021/12/21 10:31:06;;;;;;;;;14.75;13.25;;;;;5.19;62.23;101621.47;5137119;27;45727;-78
2021/12/21 10:33:32;;;;;;;;;15.00;14.25;;;;;5.28;61.92;101631.59;5118507;27;45618;-77
2021/12/21 10:36:01;;;;;;;;;16.00;14.25;;;;;5.25;62.48;101621.28;5118955;27;45801;-79
2021/12/21 10:38:31;;;;;;;;;20.25;18.25;;;;;5.30;61.83;101622.84;5136558;27;47604;-78
2021/12/21 10:41:29;;;;;;;;;15.75;14.00;;;;;5.36;62.22;101626.97;5136534;27;47294;-78
2021/12/21 10:43:58;;;;;;;;;17.50;14.25;;;;;5.38;61.78;101630.38;5128286;27;45777;-79
2021/12/21 10:46:29;;;;;;;;;20.00;16.00;;;;;5.38;61.94;101625.19;5118668;27;45460;-78
2021/12/21 10:49:24;;;;;;;;;16.00;15.25;;;;;5.38;61.95;101626.03;5136707;27;46017;-79
2021/12/21 10:52:05;;;;;;;;;19.50;15.75;;;;;5.35;61.82;101614.88;5136191;27;46113;-79
2021/12/21 10:54:37;;;;;;;;;18.50;12.75;;;;;5.37;61.90;101626.09;5136751;27;45803;-77
2021/12/21 10:57:12;;;;;;;;;22.00;17.50;;;;;5.41;62.32;101625.94;5136706;27;45693;-78
2021/12/21 10:59:41;;;;;;;;;23.25;15.50;;;;;5.43;62.32;101623.28;5118413;27;46434;-77
2021/12/21 11:02:16;;;;;;;;;17.25;12.50;;;;;5.43;62.14;101626.75;5136581;27;46231;-77
2021/12/21 11:04:44;;;;;;;;;18.25;16.00;;;;;5.42;62.09;101613.78;5117719;27;45658;-78
2021/12/21 11:07:27;;;;;;;;;19.00;15.25;;;;;5.49;62.01;101628.28;5136566;27;45700;-77
2021/12/21 11:10:15;;;;;;;;;16.00;14.75;;;;;5.51;62.14;101620.44;5135959;27;46443;-75
2021/12/21 11:12:53;;;;;;;;;15.50;14.00;;;;;5.53;62.10;101619.47;5135709;27;47126;-75
2021/12/21 11:15:29;;;;;;;;;17.25;15.00;;;;;5.56;61.76;101621.97;5135134;27;45609;-75
2021/12/21 11:17:59;;;;;;;;;19.00;17.25;;;;;5.61;61.97;101621.81;5136042;27;45519;-75
2021/12/21 11:20:26;;;;;;;;;19.50;18.25;;;;;5.63;61.99;101618.25;5135687;27;46995;-75
2021/12/21 11:22:53;;;;;;;;;22.75;18.50;;;;;5.63;61.89;101594.88;5135902;27;46367;-73
2021/12/21 11:25:19;;;;;;;;;19.00;17.00;;;;;5.70;62.38;101611.09;5135887;27;45499;-75
2021/12/21 11:27:45;;;;;;;;;19.00;14.25;;;;;5.71;61.76;101608.47;5117295;27;45541;-75
2021/12/21 11:30:16;;;;;;;;;24.00;19.75;;;;;5.68;62.07;101586.91;5137143;27;46571;-76
2021/12/21 11:32:44;;;;;;;;;21.00;19.00;;;;;5.77;61.86;101605.66;5137103;27;46304;-76
2021/12/21 11:37:48;;;;;;;;;20.75;18.00;;;;;5.82;61.71;101608.06;5137207;27;45690;-76
2021/12/21 11:40:17;;;;;;;;;23.50;19.75;;;;;5.84;61.70;101595.84;5135504;27;47353;-75
2021/12/21 11:42:51;;;;;;;;;21.75;17.00;;;;;5.84;62.15;101591.50;5135563;27;46079;-76
2021/12/21 11:45:47;;;;;;;;;23.00;19.25;;;;;5.86;62.15;101594.91;5135992;27;45482;-75
2021/12/21 11:48:24;;;;;;;;;25.00;17.25;;;;;5.83;62.02;101578.59;5135546;27;45876;-75
2021/12/21 11:50:51;;;;;;;;;19.25;18.00;;;;;5.92;61.65;101593.03;5135497;27;46489;-76
2021/12/21 11:53:19;;;;;;;;;24.25;19.00;;;;;5.92;61.76;101591.28;5135661;27;46935;-75
2021/12/21 11:55:48;;;;;;;;;24.00;21.50;;;;;5.93;61.86;101584.31;5099519;27;45901;-73
2021/12/21 11:58:26;;;;;;;;;19.25;18.25;;;;;5.96;62.03;101574.66;5135287;27;45843;-74
2021/12/21 12:00:58;;;;;;;;;16.50;15.75;;;;;5.97;61.99;101576.34;5135235;27;46741;-76
2021/12/21 12:03:26;;;;;;;;;19.00;18.25;;;;;5.94;61.96;101579.03;5135530;27;46157;-75
2021/12/21 12:06:03;;;;;;;;;24.75;16.75;;;;;6.00;61.74;101583.19;5135434;27;45659;-75
2021/12/21 12:12:03;;;;;;;;;19.50;17.75;;;;;6.00;61.49;101576.22;5050839;28;45820;-75
2021/12/21 12:14:28;;;;;;;;;19.00;16.25;;;;;5.99;61.51;101560.69;5051229;28;46179;-75
2021/12/21 12:17:01;;;;;;;;;22.25;18.00;;;;;6.02;61.54;101556.22;5050810;28;45753;-76
2021/12/21 12:19:34;;;;;;;;;21.50;17.25;;;;;6.07;61.82;101563.84;5051106;28;45894;-74
2021/12/21 12:22:03;;;;;;;;;23.75;20.25;;;;;6.09;61.77;101564.66;5050402;28;47588;-76
2021/12/21 12:27:53;;;;;;;;;24.00;19.50;;;;;6.14;61.39;101554.91;5053424;27;45841;-75
2021/12/21 12:30:25;;;;;;;;;23.25;19.75;;;;;6.15;61.59;101552.28;5054616;28;45790;-75
2021/12/21 12:32:59;;;;;;;;;27.00;23.75;;;;;6.18;61.44;101557.34;5054071;28;46572;-77
2021/12/21 12:35:28;;;;;;;;;23.00;20.00;;;;;6.14;61.63;101545.38;5054111;28;46212;-74
2021/12/21 12:37:58;;;;;;;;;20.00;18.75;;;;;6.19;61.71;101550.38;5053754;28;45630;-75
2021/12/21 12:43:57;;;;;;;;;22.50;20.50;;;;;6.11;61.72;101531.59;5058005;28;45771;-76
2021/12/21 12:46:25;;;;;;;;;27.50;21.50;;;;;6.20;61.43;101545.13;5043305;28;47362;-76
2021/12/21 12:48:51;;;;;;;;;24.75;23.00;;;;;6.21;61.07;101546.81;5109877;27;45377;-75
2021/12/21 12:51:30;;;;;;;;;24.50;22.00;;;;;6.22;61.30;101539.84;5121776;27;45577;-75
2021/12/21 12:53:56;;;;;;;;;30.25;23.50;;;;;6.18;61.37;101526.13;5143059;27;46373;-75
2021/12/21 12:56:22;;;;;;;;;30.50;22.75;;;;;6.22;61.30;101521.66;5147004;27;45478;-76
2021/12/21 12:58:58;;;;;;;;;24.25;19.25;;;;;6.27;61.43;101525.75;5140757;27;45634;-76
2021/12/21 13:01:26;;;;;;;;;27.75;23.00;;;;;6.29;61.20;101520.50;5138820;27;45491;-74
2021/12/21 13:03:59;;;;;;;;;27.25;22.50;;;;;6.27;61.52;101514.50;5139041;27;46740;-76
2021/12/21 13:06:31;;;;;;;;;27.25;22.50;;;;;6.33;61.30;101524.69;5138422;27;46389;-74
2021/12/21 13:08:56;;;;;;;;;27.75;22.25;;;;;6.35;61.43;101517.66;5138008;27;45574;-76
2021/12/21 13:14:53;;;;;;;;;27.00;23.25;;;;;6.35;61.37;101504.66;5137523;27;46055;-74
2021/12/21 13:17:18;;;;;;;;;26.00;22.00;;;;;6.30;61.04;101491.84;5137384;27;46239;-75
2021/12/21 13:19:44;;;;;;;;;21.50;21.00;;;;;6.35;60.94;101496.84;5137514;27;45652;-76
2021/12/21 13:22:09;;;;;;;;;26.50;21.00;;;;;6.35;61.47;101501.22;5136522;27;45652;-75
2021/12/21 13:24:39;;;;;;;;;29.25;21.00;;;;;6.32;61.02;101486.56;5138214;27;45751;-74
2021/12/21 13:27:13;;;;;;;;;28.00;21.75;;;;;6.42;61.03;101495.72;5138510;27;46216;-75
2021/12/21 13:29:39;;;;;;;;;25.50;22.75;;;;;6.47;61.46;101511.16;5137995;27;45582;-75
2021/12/21 13:32:11;;;;;;;;;23.75;18.75;;;;;6.50;60.92;101511.84;5138126;27;45509;-75
2021/12/21 13:34:40;;;;;;;;;28.25;23.75;;;;;6.52;61.20;101510.06;5137464;27;46677;-77
2021/12/21 13:37:09;;;;;;;;;24.00;17.75;;;;;6.53;61.01;101500.50;5137179;27;46349;-75